sensor_id;sensor_type;location;lat;lon;timestamp;temperature;humidity
35491;DHT22;21605;52.068;20.806;2022-09-20T00:01:49;10.90;99.90
35491;DHT22;21605;52.068;20.806;2022-09-20T00:04:14;10.90;99.90
35491;DHT22;21605;52.068;20.806;2022-09-20T00:06:40;10.90;99.90
35491;DHT22;21605;52.068;20.806;2022-09-20T00:09:05;10.80;99.90
35491;DHT22;21605;52.068;20.806;2022-09-20T00:11:33;10.80;99.90
35491;DHT22;21605;52.068;20.806;2022-09-20T00:14:01;10.80;99.90
35491;DHT22;21605;52.068;20.806;2022-09-20T00:16:30;10.80;99.90
35491;DHT22;21605;52.068;20.806;2022-09-20T00:18:58;10.70;99.90
35491;DHT22;21605;52.068;20.806;2022-09-20T00:21:26;10.70;99.90
35491;DHT22;21605;52.068;20.806;2022-09-20T00:23:53;10.70;99.90
35491;DHT22;21605;52.068;20.806;2022-09-20T00:26:19;10.70;99.90
35491;DHT22;21605;52.068;20.806;2022-09-20T00:28:45;10.60;99.90
35491;DHT22;21605;52.068;20.806;2022-09-20T00:31:12;10.60;99.90
35491;DHT22;21605;52.068;20.806;2022-09-20T00:33:38;10.60;99.90
35491;DHT22;21605;52.068;20.806;2022-09-20T00:36:21;10.60;99.90
35491;DHT22;21605;52.068;20.806;2022-09-20T00:38:47;10.70;99.90
35491;DHT22;21605;52.068;20.806;2022-09-20T00:41:13;10.50;99.90
35491;DHT22;21605;52.068;20.806;2022-09-20T00:43:43;10.50;99.90
35491;DHT22;21605;52.068;20.806;2022-09-20T00:46:26;10.50;99.90
35491;DHT22;21605;52.068;20.806;2022-09-20T00:48:59;10.40;99.90
35491;DHT22;21605;52.068;20.806;2022-09-20T00:51:32;10.40;99.90
35491;DHT22;21605;52.068;20.806;2022-09-20T00:54:00;10.40;99.90
35491;DHT22;21605;52.068;20.806;2022-09-20T00:56:31;10.40;99.90
35491;DHT22;21605;52.068;20.806;2022-09-20T00:59:10;10.40;99.90
35491;DHT22;21605;52.068;20.806;2022-09-20T01:01:39;10.40;99.90
35491;DHT22;21605;52.068;20.806;2022-09-20T01:04:05;10.40;99.90
35491;DHT22;21605;52.068;20.806;2022-09-20T01:06:31;10.40;99.90
35491;DHT22;21605;52.068;20.806;2022-09-20T01:09:00;10.30;99.90
35491;DHT22;21605;52.068;20.806;2022-09-20T01:11:29;10.30;99.90
35491;DHT22;21605;52.068;20.806;2022-09-20T01:13:54;10.30;99.90
35491;DHT22;21605;52.068;20.806;2022-09-20T01:16:20;10.30;99.90
35491;DHT22;21605;52.068;20.806;2022-09-20T01:18:47;10.30;99.90
35491;DHT22;21605;52.068;20.806;2022-09-20T01:21:14;10.30;99.90
35491;DHT22;21605;52.068;20.806;2022-09-20T01:24:04;10.30;99.90
35491;DHT22;21605;52.068;20.806;2022-09-20T01:30:01;10.20;99.90
35491;DHT22;21605;52.068;20.806;2022-09-20T01:32:46;10.20;99.90
35491;DHT22;21605;52.068;20.806;2022-09-20T01:35:16;10.20;99.90
35491;DHT22;21605;52.068;20.806;2022-09-20T01:38:40;10.10;99.90
35491;DHT22;21605;52.068;20.806;2022-09-20T01:41:27;10.10;99.90
35491;DHT22;21605;52.068;20.806;2022-09-20T01:44:39;10.10;99.90
35491;DHT22;21605;52.068;20.806;2022-09-20T01:46:50;10.10;99.90
35491;DHT22;21605;52.068;20.806;2022-09-20T01:50:05;10.10;99.90
35491;DHT22;21605;52.068;20.806;2022-09-20T01:55:11;10.10;99.90
35491;DHT22;21605;52.068;20.806;2022-09-20T02:00:25;10.00;99.90
35491;DHT22;21605;52.068;20.806;2022-09-20T02:05:54;10.00;99.90
35491;DHT22;21605;52.068;20.806;2022-09-20T02:08:48;9.90;99.90
35491;DHT22;21605;52.068;20.806;2022-09-20T02:29:06;9.80;99.90
35491;DHT22;21605;52.068;20.806;2022-09-20T02:39:22;9.70;99.90
35491;DHT22;21605;52.068;20.806;2022-09-20T02:42:14;9.80;99.90
35491;DHT22;21605;52.068;20.806;2022-09-20T02:47:37;9.70;99.90
35491;DHT22;21605;52.068;20.806;2022-09-20T03:01:23;9.70;99.90
35491;DHT22;21605;52.068;20.806;2022-09-20T03:07:29;9.70;99.90
35491;DHT22;21605;52.068;20.806;2022-09-20T03:18:06;9.60;99.90
35491;DHT22;21605;52.068;20.806;2022-09-20T03:29:14;9.70;99.90
35491;DHT22;21605;52.068;20.806;2022-09-20T03:42:29;9.80;99.90
35491;DHT22;21605;52.068;20.806;2022-09-20T03:45:27;9.70;99.90
35491;DHT22;21605;52.068;20.806;2022-09-20T04:04:48;9.80;99.90
35491;DHT22;21605;52.068;20.806;2022-09-20T04:10:32;9.80;99.90
35491;DHT22;21605;52.068;20.806;2022-09-20T04:13:30;9.90;99.90
35491;DHT22;21605;52.068;20.806;2022-09-20T04:18:55;9.90;99.90
35491;DHT22;21605;52.068;20.806;2022-09-20T04:21:30;9.90;99.90
35491;DHT22;21605;52.068;20.806;2022-09-20T04:24:09;9.90;99.90
35491;DHT22;21605;52.068;20.806;2022-09-20T04:26:43;9.90;99.90
35491;DHT22;21605;52.068;20.806;2022-09-20T04:29:35;9.90;99.90
35491;DHT22;21605;52.068;20.806;2022-09-20T04:32:23;10.00;99.90
35491;DHT22;21605;52.068;20.806;2022-09-20T04:35:21;10.00;99.90
35491;DHT22;21605;52.068;20.806;2022-09-20T04:38:11;10.00;99.90
35491;DHT22;21605;52.068;20.806;2022-09-20T05:00:32;10.10;99.90
35491;DHT22;21605;52.068;20.806;2022-09-20T05:06:06;10.20;99.90
35491;DHT22;21605;52.068;20.806;2022-09-20T05:27:49;10.30;99.90
35491;DHT22;21605;52.068;20.806;2022-09-20T05:30:37;10.30;99.90
35491;DHT22;21605;52.068;20.806;2022-09-20T05:38:42;10.40;99.90
35491;DHT22;21605;52.068;20.806;2022-09-20T05:41:30;10.40;99.90
35491;DHT22;21605;52.068;20.806;2022-09-20T05:47:34;10.50;99.90
35491;DHT22;21605;52.068;20.806;2022-09-20T05:49:49;10.50;99.90
35491;DHT22;21605;52.068;20.806;2022-09-20T05:55:33;10.50;99.90
35491;DHT22;21605;52.068;20.806;2022-09-20T06:00:58;10.50;99.90
35491;DHT22;21605;52.068;20.806;2022-09-20T06:03:41;10.60;99.90
35491;DHT22;21605;52.068;20.806;2022-09-20T06:06:39;10.50;99.90
35491;DHT22;21605;52.068;20.806;2022-09-20T06:09:31;10.60;99.90
35491;DHT22;21605;52.068;20.806;2022-09-20T06:15:17;10.60;99.90
35491;DHT22;21605;52.068;20.806;2022-09-20T06:17:55;10.60;99.90
35491;DHT22;21605;52.068;20.806;2022-09-20T06:22:59;10.70;99.90
35491;DHT22;21605;52.068;20.806;2022-09-20T06:30:51;10.70;99.90
35491;DHT22;21605;52.068;20.806;2022-09-20T06:33:25;10.70;99.90
35491;DHT22;21605;52.068;20.806;2022-09-20T06:36:16;10.80;99.90
35491;DHT22;21605;52.068;20.806;2022-09-20T06:42:05;10.80;99.90
35491;DHT22;21605;52.068;20.806;2022-09-20T06:44:31;10.80;99.90
35491;DHT22;21605;52.068;20.806;2022-09-20T06:46:56;10.90;99.90
35491;DHT22;21605;52.068;20.806;2022-09-20T06:49:22;10.90;99.90
35491;DHT22;21605;52.068;20.806;2022-09-20T06:51:53;10.90;99.90
35491;DHT22;21605;52.068;20.806;2022-09-20T06:54:21;10.90;99.90
35491;DHT22;21605;52.068;20.806;2022-09-20T06:56:48;10.90;99.90
35491;DHT22;21605;52.068;20.806;2022-09-20T06:59:15;10.90;99.90
35491;DHT22;21605;52.068;20.806;2022-09-20T07:01:41;11.00;99.90
35491;DHT22;21605;52.068;20.806;2022-09-20T07:04:07;11.00;99.90
35491;DHT22;21605;52.068;20.806;2022-09-20T07:06:34;11.10;99.90
35491;DHT22;21605;52.068;20.806;2022-09-20T07:09:00;11.10;99.90
35491;DHT22;21605;52.068;20.806;2022-09-20T07:11:25;11.20;99.90
35491;DHT22;21605;52.068;20.806;2022-09-20T07:13:54;11.10;99.90
35491;DHT22;21605;52.068;20.806;2022-09-20T07:16:20;11.20;99.90
35491;DHT22;21605;52.068;20.806;2022-09-20T07:18:46;11.20;99.90
35491;DHT22;21605;52.068;20.806;2022-09-20T07:21:14;11.30;99.90
35491;DHT22;21605;52.068;20.806;2022-09-20T07:23:40;11.40;99.90
35491;DHT22;21605;52.068;20.806;2022-09-20T07:26:15;11.40;99.90
35491;DHT22;21605;52.068;20.806;2022-09-20T07:28:41;11.50;99.90
35491;DHT22;21605;52.068;20.806;2022-09-20T07:31:06;11.50;99.90
35491;DHT22;21605;52.068;20.806;2022-09-20T07:33:32;11.50;99.90
35491;DHT22;21605;52.068;20.806;2022-09-20T07:35:59;11.50;99.90
35491;DHT22;21605;52.068;20.806;2022-09-20T07:38:25;11.70;99.90
35491;DHT22;21605;52.068;20.806;2022-09-20T07:40:58;11.60;99.90
35491;DHT22;21605;52.068;20.806;2022-09-20T07:43:25;11.70;99.90
35491;DHT22;21605;52.068;20.806;2022-09-20T07:45:52;11.70;99.90
35491;DHT22;21605;52.068;20.806;2022-09-20T07:48:40;11.80;99.90
35491;DHT22;21605;52.068;20.806;2022-09-20T07:51:09;11.80;99.90
35491;DHT22;21605;52.068;20.806;2022-09-20T07:53:36;11.80;99.90
35491;DHT22;21605;52.068;20.806;2022-09-20T07:56:05;11.90;99.90
35491;DHT22;21605;52.068;20.806;2022-09-20T07:58:33;11.90;99.90
35491;DHT22;21605;52.068;20.806;2022-09-20T08:01:10;12.00;99.90
35491;DHT22;21605;52.068;20.806;2022-09-20T08:03:37;12.00;99.90
35491;DHT22;21605;52.068;20.806;2022-09-20T08:06:11;12.00;99.90
35491;DHT22;21605;52.068;20.806;2022-09-20T08:08:39;12.00;99.90
35491;DHT22;21605;52.068;20.806;2022-09-20T08:11:14;12.10;99.90
35491;DHT22;21605;52.068;20.806;2022-09-20T08:13:48;12.10;99.90
35491;DHT22;21605;52.068;20.806;2022-09-20T08:16:15;12.10;99.90
35491;DHT22;21605;52.068;20.806;2022-09-20T08:18:45;12.10;99.90
35491;DHT22;21605;52.068;20.806;2022-09-20T08:21:12;12.10;99.90
35491;DHT22;21605;52.068;20.806;2022-09-20T08:23:40;12.10;99.90
35491;DHT22;21605;52.068;20.806;2022-09-20T08:26:08;12.10;99.90
35491;DHT22;21605;52.068;20.806;2022-09-20T08:28:37;12.10;99.90
35491;DHT22;21605;52.068;20.806;2022-09-20T08:31:05;12.10;99.90
35491;DHT22;21605;52.068;20.806;2022-09-20T08:33:31;12.10;99.90
35491;DHT22;21605;52.068;20.806;2022-09-20T08:35:57;12.20;99.90
35491;DHT22;21605;52.068;20.806;2022-09-20T08:38:23;12.10;99.90
35491;DHT22;21605;52.068;20.806;2022-09-20T08:40:58;12.10;99.90
35491;DHT22;21605;52.068;20.806;2022-09-20T08:43:27;12.10;99.90
35491;DHT22;21605;52.068;20.806;2022-09-20T08:45:56;12.20;99.90
35491;DHT22;21605;52.068;20.806;2022-09-20T08:48:27;12.20;99.90
35491;DHT22;21605;52.068;20.806;2022-09-20T08:50:53;12.20;99.90
35491;DHT22;21605;52.068;20.806;2022-09-20T08:53:19;12.20;99.90
35491;DHT22;21605;52.068;20.806;2022-09-20T08:55:45;12.20;99.90
35491;DHT22;21605;52.068;20.806;2022-09-20T08:58:11;12.30;99.90
35491;DHT22;21605;52.068;20.806;2022-09-20T09:00:39;12.30;99.90
35491;DHT22;21605;52.068;20.806;2022-09-20T09:03:15;12.40;99.90
35491;DHT22;21605;52.068;20.806;2022-09-20T09:05:46;14.90;99.90
35491;DHT22;21605;52.068;20.806;2022-09-20T09:08:15;12.50;99.90
35491;DHT22;21605;52.068;20.806;2022-09-20T09:10:44;12.60;99.90
35491;DHT22;21605;52.068;20.806;2022-09-20T09:13:20;12.70;99.90
35491;DHT22;21605;52.068;20.806;2022-09-20T09:15:52;14.10;99.90
35491;DHT22;21605;52.068;20.806;2022-09-20T09:18:18;12.90;99.90
35491;DHT22;21605;52.068;20.806;2022-09-20T09:20:44;12.90;99.90
35491;DHT22;21605;52.068;20.806;2022-09-20T09:23:21;13.00;99.90
35491;DHT22;21605;52.068;20.806;2022-09-20T09:25:50;13.00;99.90
35491;DHT22;21605;52.068;20.806;2022-09-20T09:28:23;13.10;99.90
35491;DHT22;21605;52.068;20.806;2022-09-20T09:30:49;13.20;99.90
35491;DHT22;21605;52.068;20.806;2022-09-20T09:33:32;13.20;99.90
35491;DHT22;21605;52.068;20.806;2022-09-20T09:38:29;13.20;99.90
35491;DHT22;21605;52.068;20.806;2022-09-20T09:40:58;13.20;99.90
35491;DHT22;21605;52.068;20.806;2022-09-20T09:43:28;13.30;99.90
35491;DHT22;21605;52.068;20.806;2022-09-20T09:46:14;13.30;99.90
35491;DHT22;21605;52.068;20.806;2022-09-20T09:48:42;13.30;99.90
35491;DHT22;21605;52.068;20.806;2022-09-20T09:53:40;13.40;99.90
35491;DHT22;21605;52.068;20.806;2022-09-20T09:56:31;13.40;99.90
35491;DHT22;21605;52.068;20.806;2022-09-20T10:04:27;13.60;99.90
35491;DHT22;21605;52.068;20.806;2022-09-20T10:14:57;13.60;99.90
35491;DHT22;21605;52.068;20.806;2022-09-20T10:43:18;14.60;99.90
35491;DHT22;21605;52.068;20.806;2022-09-20T10:49:15;15.10;99.90
35491;DHT22;21605;52.068;20.806;2022-09-20T10:51:45;15.30;99.90
35491;DHT22;21605;52.068;20.806;2022-09-20T10:57:21;15.80;99.90
35491;DHT22;21605;52.068;20.806;2022-09-20T11:00:03;16.10;99.90
35491;DHT22;21605;52.068;20.806;2022-09-20T11:08:22;16.70;99.90
35491;DHT22;21605;52.068;20.806;2022-09-20T11:11:09;16.80;99.60
35491;DHT22;21605;52.068;20.806;2022-09-20T11:13:46;16.90;99.90
35491;DHT22;21605;52.068;20.806;2022-09-20T11:16:24;16.90;99.60
35491;DHT22;21605;52.068;20.806;2022-09-20T11:19:46;16.90;99.10
35491;DHT22;21605;52.068;20.806;2022-09-20T11:22:36;16.90;98.80
35491;DHT22;21605;52.068;20.806;2022-09-20T11:24:46;16.90;99.20
35491;DHT22;21605;52.068;20.806;2022-09-20T11:27:25;18.30;98.90
35491;DHT22;21605;52.068;20.806;2022-09-20T11:30:12;17.10;98.20
35491;DHT22;21605;52.068;20.806;2022-09-20T11:35:32;17.20;98.40
35491;DHT22;21605;52.068;20.806;2022-09-20T11:38:03;17.20;97.80
35491;DHT22;21605;52.068;20.806;2022-09-20T11:40:35;17.30;98.00
35491;DHT22;21605;52.068;20.806;2022-09-20T11:43:05;17.40;97.50
35491;DHT22;21605;52.068;20.806;2022-09-20T11:45:33;17.40;97.50
35491;DHT22;21605;52.068;20.806;2022-09-20T11:48:06;17.30;96.90
35491;DHT22;21605;52.068;20.806;2022-09-20T11:56:00;17.50;97.20
35491;DHT22;21605;52.068;20.806;2022-09-20T11:58:28;17.60;97.00
35491;DHT22;21605;52.068;20.806;2022-09-20T12:00:55;17.60;97.10
35491;DHT22;21605;52.068;20.806;2022-09-20T12:06:02;17.40;97.00
35491;DHT22;21605;52.068;20.806;2022-09-20T12:08:35;17.30;96.50
35491;DHT22;21605;52.068;20.806;2022-09-20T12:11:11;17.30;97.20
35491;DHT22;21605;52.068;20.806;2022-09-20T12:13:40;17.40;97.10
35491;DHT22;21605;52.068;20.806;2022-09-20T12:16:11;17.40;97.40
35491;DHT22;21605;52.068;20.806;2022-09-20T12:21:18;17.30;96.80
35491;DHT22;21605;52.068;20.806;2022-09-20T12:28:48;17.40;96.90
35491;DHT22;21605;52.068;20.806;2022-09-20T12:37:20;17.50;95.80
35491;DHT22;21605;52.068;20.806;2022-09-20T12:39:35;17.50;95.70
35491;DHT22;21605;52.068;20.806;2022-09-20T12:42:03;17.50;96.10
35491;DHT22;21605;52.068;20.806;2022-09-20T12:47:26;17.50;95.70
35491;DHT22;21605;52.068;20.806;2022-09-20T12:49:55;17.40;95.20
35491;DHT22;21605;52.068;20.806;2022-09-20T12:55:48;17.40;95.80
35491;DHT22;21605;52.068;20.806;2022-09-20T13:09:04;17.20;95.40
35491;DHT22;21605;52.068;20.806;2022-09-20T13:11:52;17.20;95.60
35491;DHT22;21605;52.068;20.806;2022-09-20T13:14:28;17.10;95.50
35491;DHT22;21605;52.068;20.806;2022-09-20T13:17:21;17.00;95.30
35491;DHT22;21605;52.068;20.806;2022-09-20T13:19:50;16.90;95.50
35491;DHT22;21605;52.068;20.806;2022-09-20T13:22:22;16.80;95.80
35491;DHT22;21605;52.068;20.806;2022-09-20T13:24:51;16.80;95.80
35491;DHT22;21605;52.068;20.806;2022-09-20T13:27:46;16.70;96.10
35491;DHT22;21605;52.068;20.806;2022-09-20T13:30:27;16.60;95.90
35491;DHT22;21605;52.068;20.806;2022-09-20T13:33:22;16.50;95.90
35491;DHT22;21605;52.068;20.806;2022-09-20T13:35:52;16.50;96.10
35491;DHT22;21605;52.068;20.806;2022-09-20T13:38:19;16.40;96.60
35491;DHT22;21605;52.068;20.806;2022-09-20T13:40:50;16.40;96.30
35491;DHT22;21605;52.068;20.806;2022-09-20T13:43:36;16.40;96.30
35491;DHT22;21605;52.068;20.806;2022-09-20T13:46:20;16.30;96.40
35491;DHT22;21605;52.068;20.806;2022-09-20T13:48:47;16.30;96.30
35491;DHT22;21605;52.068;20.806;2022-09-20T13:51:24;16.30;96.10
35491;DHT22;21605;52.068;20.806;2022-09-20T13:53:50;16.30;96.50
35491;DHT22;21605;52.068;20.806;2022-09-20T13:58:48;16.40;96.90
35491;DHT22;21605;52.068;20.806;2022-09-20T14:01:27;15.30;96.40
35491;DHT22;21605;52.068;20.806;2022-09-20T14:03:55;16.50;96.30
35491;DHT22;21605;52.068;20.806;2022-09-20T14:06:24;16.60;96.70
35491;DHT22;21605;52.068;20.806;2022-09-20T14:08:55;16.60;96.30
35491;DHT22;21605;52.068;20.806;2022-09-20T14:11:27;16.70;96.20
35491;DHT22;21605;52.068;20.806;2022-09-20T14:13:54;16.70;95.40
35491;DHT22;21605;52.068;20.806;2022-09-20T14:16:26;16.70;95.70
35491;DHT22;21605;52.068;20.806;2022-09-20T14:18:53;16.80;95.40
35491;DHT22;21605;52.068;20.806;2022-09-20T14:21:22;16.90;95.60
35491;DHT22;21605;52.068;20.806;2022-09-20T14:23:57;16.90;95.50
35491;DHT22;21605;52.068;20.806;2022-09-20T14:26:35;16.90;95.30
35491;DHT22;21605;52.068;20.806;2022-09-20T14:31:54;16.90;95.70
35491;DHT22;21605;52.068;20.806;2022-09-20T14:34:20;16.90;95.40
35491;DHT22;21605;52.068;20.806;2022-09-20T14:36:48;16.90;95.40
35491;DHT22;21605;52.068;20.806;2022-09-20T14:39:16;16.90;94.80
35491;DHT22;21605;52.068;20.806;2022-09-20T14:41:44;16.90;95.70
35491;DHT22;21605;52.068;20.806;2022-09-20T14:44:37;16.90;95.30
35491;DHT22;21605;52.068;20.806;2022-09-20T14:47:13;16.80;95.10
35491;DHT22;21605;52.068;20.806;2022-09-20T14:49:43;16.70;93.80
35491;DHT22;21605;52.068;20.806;2022-09-20T14:57:33;16.30;94.10
35491;DHT22;21605;52.068;20.806;2022-09-20T15:00:10;16.20;94.60
35491;DHT22;21605;52.068;20.806;2022-09-20T15:02:36;16.00;94.90
35491;DHT22;21605;52.068;20.806;2022-09-20T15:05:03;15.90;95.10
35491;DHT22;21605;52.068;20.806;2022-09-20T15:07:29;16.20;95.40
35491;DHT22;21605;52.068;20.806;2022-09-20T15:09:55;15.50;95.50
35491;DHT22;21605;52.068;20.806;2022-09-20T15:12:21;15.40;95.60
35491;DHT22;21605;52.068;20.806;2022-09-20T15:14:47;15.20;95.80
35491;DHT22;21605;52.068;20.806;2022-09-20T15:17:18;15.10;95.90
35491;DHT22;21605;52.068;20.806;2022-09-20T15:19:48;14.90;96.10
35491;DHT22;21605;52.068;20.806;2022-09-20T15:22:13;14.80;96.20
35491;DHT22;21605;52.068;20.806;2022-09-20T15:24:40;14.70;96.40
35491;DHT22;21605;52.068;20.806;2022-09-20T15:27:06;14.50;96.40
35491;DHT22;21605;52.068;20.806;2022-09-20T15:29:31;14.40;96.60
35491;DHT22;21605;52.068;20.806;2022-09-20T15:31:57;14.30;96.70
35491;DHT22;21605;52.068;20.806;2022-09-20T15:34:23;14.20;96.90
35491;DHT22;21605;52.068;20.806;2022-09-20T15:36:48;14.10;97.10
35491;DHT22;21605;52.068;20.806;2022-09-20T15:39:15;14.00;97.10
35491;DHT22;21605;52.068;20.806;2022-09-20T15:41:41;14.00;97.30
35491;DHT22;21605;52.068;20.806;2022-09-20T15:44:09;13.90;97.40
35491;DHT22;21605;52.068;20.806;2022-09-20T15:46:35;13.70;97.50
35491;DHT22;21605;52.068;20.806;2022-09-20T15:49:01;13.70;97.90
35491;DHT22;21605;52.068;20.806;2022-09-20T15:51:28;13.70;98.00
35491;DHT22;21605;52.068;20.806;2022-09-20T15:54:02;13.50;98.10
35491;DHT22;21605;52.068;20.806;2022-09-20T15:56:33;13.50;98.10
35491;DHT22;21605;52.068;20.806;2022-09-20T15:59:04;13.50;98.20
35491;DHT22;21605;52.068;20.806;2022-09-20T16:03:57;13.30;98.50
35491;DHT22;21605;52.068;20.806;2022-09-20T16:06:24;13.30;98.60
35491;DHT22;21605;52.068;20.806;2022-09-20T16:08:50;13.30;98.70
35491;DHT22;21605;52.068;20.806;2022-09-20T16:11:18;13.20;98.80
35491;DHT22;21605;52.068;20.806;2022-09-20T16:13:55;13.20;98.90
35491;DHT22;21605;52.068;20.806;2022-09-20T16:16:22;13.20;99.30
35491;DHT22;21605;52.068;20.806;2022-09-20T16:18:48;13.20;98.90
35491;DHT22;21605;52.068;20.806;2022-09-20T16:21:32;14.90;99.60
35491;DHT22;21605;52.068;20.806;2022-09-20T16:23:58;13.10;99.00
35491;DHT22;21605;52.068;20.806;2022-09-20T16:26:25;13.00;99.20
35491;DHT22;21605;52.068;20.806;2022-09-20T16:28:51;13.00;99.50
35491;DHT22;21605;52.068;20.806;2022-09-20T16:31:27;13.00;99.50
35491;DHT22;21605;52.068;20.806;2022-09-20T16:33:53;13.00;99.70
35491;DHT22;21605;52.068;20.806;2022-09-20T16:36:19;12.90;99.90
35491;DHT22;21605;52.068;20.806;2022-09-20T16:38:45;12.90;99.90
35491;DHT22;21605;52.068;20.806;2022-09-20T16:41:10;12.90;99.80
35491;DHT22;21605;52.068;20.806;2022-09-20T16:43:36;12.90;99.90
35491;DHT22;21605;52.068;20.806;2022-09-20T16:46:03;12.90;99.90
35491;DHT22;21605;52.068;20.806;2022-09-20T16:48:31;12.80;99.90
35491;DHT22;21605;52.068;20.806;2022-09-20T16:50:57;12.80;99.90
35491;DHT22;21605;52.068;20.806;2022-09-20T16:53:25;12.80;99.90
35491;DHT22;21605;52.068;20.806;2022-09-20T16:55:50;12.80;99.90
35491;DHT22;21605;52.068;20.806;2022-09-20T16:58:16;12.80;99.90
35491;DHT22;21605;52.068;20.806;2022-09-20T17:00:42;12.80;99.90
35491;DHT22;21605;52.068;20.806;2022-09-20T17:03:08;12.70;99.90
35491;DHT22;21605;52.068;20.806;2022-09-20T17:05:33;12.70;99.90
35491;DHT22;21605;52.068;20.806;2022-09-20T17:07:59;12.70;99.90
35491;DHT22;21605;52.068;20.806;2022-09-20T17:10:26;12.60;99.90
35491;DHT22;21605;52.068;20.806;2022-09-20T17:12:52;12.70;99.90
35491;DHT22;21605;52.068;20.806;2022-09-20T17:15:22;12.60;99.90
35491;DHT22;21605;52.068;20.806;2022-09-20T17:17:48;12.60;99.90
35491;DHT22;21605;52.068;20.806;2022-09-20T17:20:14;12.50;99.90
35491;DHT22;21605;52.068;20.806;2022-09-20T17:22:40;12.60;99.90
35491;DHT22;21605;52.068;20.806;2022-09-20T17:25:07;12.50;99.90
35491;DHT22;21605;52.068;20.806;2022-09-20T17:27:33;12.50;99.90
35491;DHT22;21605;52.068;20.806;2022-09-20T17:30:01;12.50;99.90
35491;DHT22;21605;52.068;20.806;2022-09-20T17:32:28;12.50;99.90
35491;DHT22;21605;52.068;20.806;2022-09-20T17:34:53;12.50;99.90
35491;DHT22;21605;52.068;20.806;2022-09-20T17:37:19;12.50;99.90
35491;DHT22;21605;52.068;20.806;2022-09-20T17:39:45;12.50;99.90
35491;DHT22;21605;52.068;20.806;2022-09-20T17:42:10;12.50;99.90
35491;DHT22;21605;52.068;20.806;2022-09-20T17:44:36;12.40;99.90
35491;DHT22;21605;52.068;20.806;2022-09-20T17:47:02;12.40;99.90
35491;DHT22;21605;52.068;20.806;2022-09-20T17:49:28;12.40;99.90
35491;DHT22;21605;52.068;20.806;2022-09-20T17:51:55;12.50;99.90
35491;DHT22;21605;52.068;20.806;2022-09-20T17:54:21;12.50;99.90
35491;DHT22;21605;52.068;20.806;2022-09-20T17:56:50;12.40;99.90
35491;DHT22;21605;52.068;20.806;2022-09-20T17:59:17;12.40;99.90
35491;DHT22;21605;52.068;20.806;2022-09-20T18:01:44;12.40;99.90
35491;DHT22;21605;52.068;20.806;2022-09-20T18:04:11;12.40;99.90
35491;DHT22;21605;52.068;20.806;2022-09-20T18:06:39;12.30;99.90
35491;DHT22;21605;52.068;20.806;2022-09-20T18:09:09;12.30;99.90
35491;DHT22;21605;52.068;20.806;2022-09-20T18:14:03;12.30;99.90
35491;DHT22;21605;52.068;20.806;2022-09-20T18:16:30;12.30;99.90
35491;DHT22;21605;52.068;20.806;2022-09-20T18:18:56;12.30;99.90
35491;DHT22;21605;52.068;20.806;2022-09-20T18:21:25;12.20;99.90
35491;DHT22;21605;52.068;20.806;2022-09-20T18:23:51;12.30;99.90
35491;DHT22;21605;52.068;20.806;2022-09-20T18:29:31;12.20;99.90
35491;DHT22;21605;52.068;20.806;2022-09-20T18:31:39;12.20;99.90
35491;DHT22;21605;52.068;20.806;2022-09-20T18:36:43;12.20;99.90
35491;DHT22;21605;52.068;20.806;2022-09-20T18:39:09;12.10;99.90
35491;DHT22;21605;52.068;20.806;2022-09-20T18:41:37;12.10;99.90
35491;DHT22;21605;52.068;20.806;2022-09-20T18:44:05;12.10;99.90
35491;DHT22;21605;52.068;20.806;2022-09-20T18:46:34;12.10;99.90
35491;DHT22;21605;52.068;20.806;2022-09-20T18:49:05;12.00;99.90
35491;DHT22;21605;52.068;20.806;2022-09-20T18:51:31;12.00;99.90
35491;DHT22;21605;52.068;20.806;2022-09-20T18:53:57;12.00;99.90
35491;DHT22;21605;52.068;20.806;2022-09-20T18:56:28;12.00;99.90
35491;DHT22;21605;52.068;20.806;2022-09-20T18:59:00;12.00;99.90
35491;DHT22;21605;52.068;20.806;2022-09-20T19:04:20;11.90;99.90
35491;DHT22;21605;52.068;20.806;2022-09-20T19:12:47;11.90;99.90
35491;DHT22;21605;52.068;20.806;2022-09-20T19:20:31;11.80;99.90
35491;DHT22;21605;52.068;20.806;2022-09-20T19:23:18;11.70;99.90
35491;DHT22;21605;52.068;20.806;2022-09-20T19:26:18;11.70;99.90
35491;DHT22;21605;52.068;20.806;2022-09-20T19:28:42;11.70;99.90
35491;DHT22;21605;52.068;20.806;2022-09-20T19:31:22;11.60;99.90
35491;DHT22;21605;52.068;20.806;2022-09-20T19:33:49;11.70;99.90
35491;DHT22;21605;52.068;20.806;2022-09-20T19:36:18;11.60;99.90
35491;DHT22;21605;52.068;20.806;2022-09-20T19:41:37;11.60;99.90
35491;DHT22;21605;52.068;20.806;2022-09-20T19:50:14;11.60;99.90
35491;DHT22;21605;52.068;20.806;2022-09-20T19:52:43;11.60;99.90
35491;DHT22;21605;52.068;20.806;2022-09-20T19:55:10;11.60;99.90
35491;DHT22;21605;52.068;20.806;2022-09-20T19:57:44;11.60;99.90
35491;DHT22;21605;52.068;20.806;2022-09-20T20:00:16;11.60;99.90
35491;DHT22;21605;52.068;20.806;2022-09-20T20:02:43;11.50;99.90
35491;DHT22;21605;52.068;20.806;2022-09-20T20:05:17;11.50;99.90
35491;DHT22;21605;52.068;20.806;2022-09-20T20:07:51;11.50;99.90
35491;DHT22;21605;52.068;20.806;2022-09-20T20:13:09;11.50;99.90
35491;DHT22;21605;52.068;20.806;2022-09-20T20:16:11;11.50;99.90
35491;DHT22;21605;52.068;20.806;2022-09-20T20:21:32;11.40;99.90
35491;DHT22;21605;52.068;20.806;2022-09-20T20:24:04;11.40;99.90
35491;DHT22;21605;52.068;20.806;2022-09-20T20:26:33;11.40;99.90
35491;DHT22;21605;52.068;20.806;2022-09-20T20:28:59;11.30;99.90
35491;DHT22;21605;52.068;20.806;2022-09-20T20:31:25;11.30;99.90
35491;DHT22;21605;52.068;20.806;2022-09-20T20:33:50;11.30;99.90
35491;DHT22;21605;52.068;20.806;2022-09-20T20:36:16;11.20;99.90
35491;DHT22;21605;52.068;20.806;2022-09-20T20:38:42;11.30;99.90
35491;DHT22;21605;52.068;20.806;2022-09-20T20:41:15;11.20;99.90
35491;DHT22;21605;52.068;20.806;2022-09-20T20:43:44;11.20;99.90
35491;DHT22;21605;52.068;20.806;2022-09-20T20:46:14;11.10;99.90
35491;DHT22;21605;52.068;20.806;2022-09-20T20:48:41;11.10;99.90
35491;DHT22;21605;52.068;20.806;2022-09-20T20:51:08;11.10;99.90
35491;DHT22;21605;52.068;20.806;2022-09-20T20:53:36;11.00;99.90
35491;DHT22;21605;52.068;20.806;2022-09-20T20:56:06;11.00;99.90
35491;DHT22;21605;52.068;20.806;2022-09-20T20:58:33;11.00;99.90
35491;DHT22;21605;52.068;20.806;2022-09-20T21:01:05;11.00;99.90
35491;DHT22;21605;52.068;20.806;2022-09-20T21:03:31;11.00;99.90
35491;DHT22;21605;52.068;20.806;2022-09-20T21:05:56;10.90;99.90
35491;DHT22;21605;52.068;20.806;2022-09-20T21:08:22;10.90;99.90